Logo AVAMET
Benvolgut visitant, si us plau, ingressa Recuperar contrasenya
AVAMET paisatges

Inforatge Dénia Santa Llúcia

Dades diàries. Acumulats / Últims 30 dies disponibles

Data Temperatura (°C) Humitat rel. (%) Pressió rel. (hPa) Vent (km/h) Precipitació
Mínima Mitjana Màxima Amplitud
tèrmica
Mínima Mitjana Màxima Mínima Mitjana Màxima Predom. Mitjana Ràfega
màxima
Total
(mm)
Índex-n
Mínima Mitjana Màxima Mínima Mitjana Màxima n
0 a 1
P0 max
mm 5'
Dades mensuals acumulades fins l'últim dia disponible
03/2020 8,4 12,3 17,4 15,1 12,0 18,3 26,4 18,0 27 69 94 1.005 1.021 1.032   7,5 86,9 80,6
Dades anuals acumulades fins l'últim dia disponible
2020 6,6 11,4 17,4 14,5 12,0 18,2 26,4 19,8 17 70 97 1.005 1.026 1.038   5,3 86,9 187,0
Últims 30 dies disponibles
29-03-2020 10,3     16,0     21,4 11,1 37 54 69 1.016 1.020 1.023 SW 7,2 46,7 0,0
28-03-2020 9,4     11,9     15,0 5,6 53 70 84 1.020 1.021 1.023 SW 4,5 24,1 0,0
27-03-2020 9,2     10,5     12,0 2,8 69 82 86 1.015 1.017 1.020 WNW 3,2 25,7 2,2 0,42 0,40
26-03-2020 8,4     11,7     15,2 6,8 47 71 87 1.011 1.013 1.018 NE 5,1 32,2 0,0
25-03-2020 8,6     10,7     12,8 4,2 66 80 89 1.018 1.020 1.021 E 4,5 29,0 3,6 0,58 0,60
24-03-2020 12,7     13,8     14,8 2,1 68 83 89 1.018 1.020 1.021 E 11,3 35,4 2,2
23-03-2020 11,7     13,9     16,3 4,6 81 89 94 1.018 1.019 1.021 E 3,2 27,4 17,0 0,32 2,80
22-03-2020 11,0     12,6     14,2 3,2 83 89 94 1.015 1.016 1.018 W 4,5 20,9 17,4 0,18 1,90
21-03-2020 11,3     13,3     14,0 2,7 85 90 94 1.015 1.017 1.020 NE 3,4 20,9 20,6 0,48 3,80
20-03-2020 12,7     13,9     15,4 2,7 79 84 90 1.020 1.022 1.024 E 3,4 20,9 1,6
19-03-2020 13,6     14,4     16,2 2,6 82 88 91 1.024 1.026 1.029 E 4,0 17,7 0,0
18-03-2020 13,6     14,0     14,7 1,1 84 89 94 1.028 1.030 1.031 NE 5,3 27,4 0,0
17-03-2020 10,2     12,2     14,5 4,3 88 92 94 1.023 1.027 1.032 WNW 3,1 22,5 12,0 0,39 1,30
16-03-2020 10,2     13,2     17,6 7,4 73 83 89 1.015 1.017 1.023 WNW 4,5 33,8 4,0 0,32 0,40
15-03-2020 12,3     15,2     18,1 5,8 58 77 89 1.017 1.021 1.024 SE 5,8 45,1 0,0
14-03-2020 11,8     15,3     19,1 7,3 65 80 89 1.022 1.023 1.025 E 3,9 30,6 0,0
13-03-2020 13,6     14,5     16,1 2,5 81 87 93 1.021 1.023 1.025 NW 8,4 32,2 0,0
12-03-2020 13,9     16,6     21,4 7,5 61 73 92 1.020 1.023 1.027 SSE 2,4 14,5 0,0
11-03-2020 13,5     18,6     26,4 12,9 37 60 89 1.025 1.026 1.028 E 2,9 22,5 0,0
10-03-2020 11,5     16,9     22,6 11,1 30 54 76 1.026 1.028 1.030 SSE 2,3 19,3 0,0
09-03-2020 14,3     17,0     21,7 7,4 35 52 81 1.024 1.025 1.027 WNW 6,0 32,2 0,0
08-03-2020 12,3     17,5     22,6 10,3 27 47 82 1.023 1.026 1.028 SW 4,8 24,1 0,0
07-03-2020 10,8     14,2     17,5 6,7 39 44 54 1.024 1.026 1.028 NW 14,2 54,7 0,0
06-03-2020 13,2     14,9     17,8 4,6 34 49 68 1.016 1.019 1.024 WNW 16,3 62,8 0,0
05-03-2020 16,5     19,6     24,1 7,6 40 48 56 1.011 1.015 1.020 WNW 15,0 61,2 0,0
04-03-2020 17,4     20,1     23,3 5,9 44 54 66 1.019 1.021 1.023 WNW 14,5 45,1 0,0
03-03-2020 11,9     16,6     22,1 10,2 38 45 58 1.014 1.019 1.021 WNW 17,5 66,0 0,0
02-03-2020 13,4     19,0     23,2 9,8 27 42 56 1.005 1.011 1.020 WNW 22,7 86,9 0,0
01-03-2020 16,6     19,3     21,7 5,1 42 49 58 1.015 1.017 1.020 WNW 13,4 48,3 0,0
29-02-2020 11,2     18,1     24,9 13,7 29 53 84 1.015 1.018 1.022 S 4,0 33,8 0,0
Últims 13 mesos disponibles
02/2020 8,8 12,1 16,8 15,9 14,3 20,7 25,9 17,1 39 67 84 1.018 1.029 1.036 SSE 3,7 49,9 1,8
01/2020 6,6 10,0 15,7 12,6 12,4 15,7 21,7 15,1 55 74 94 1.018 1.029 1.036 SSE 4,7 67,6 104,6
12/2019 8,4 12,5 20,5 14,8 12,6 17,6 24,9 16,5 47 69 88 1.007 1.022 1.036 WNW 6,2 88,5 170,2
11/2019 8,1 13,6 22,1 16,4 14,7 19,6 26,8 18,7 43 55 76 1.003 1.014 1.022 WNW 10,9 72,4 10,6
10/2019 12,6 18,0 21,7 21,1 16,6 24,5 34,5 21,9 42 68 85 1.012 1.020 1.025 SW 4,5 66,0 79,0
09/2019 13,9 21,1 24,1 24,3 23,3 27,9 34,2 20,3 50 74 92 1.014 1.021 1.027 SSE 5,5 68,5 205,0
08/2019 20,1 23,7 26,8 27,3 26,6 31,9 40,7 20,6 51 69 82 1.014 1.019 1.024 SSE 5,9 63,0 67,8
07/2019 22,5 23,8 26,6 27,2 27,8 31,5 38,7 16,2 44 67 83 1.010 1.018 1.025 SSE 6,5 82,0 2,2
06/2019 14,9 19,1 23,8 23,1 20,8 27,5 37,8 22,9 36 65 85 1.012 1.019 1.025 SSE 7,3 70,9 1,0
05/2019 12,2 15,8 21,8 19,3 18,2 23,8 31,3 19,1 49 66 84 1.009 1.019 1.028 SSE 6,2 68,5 9,4
04/2019 9,7 12,9 16,4 15,6 14,6 18,9 24,6 14,9 47 69 94 1.003 1.016 1.029 SSE 7,7 68,5 322,2
03/2019 8,3 11,7 17,8 15,4 11,9 19,2 27,7 19,4 26 60 91 1.015 1.026 1.034 SSE 5,4 51,9 39,6
02/2019 7,7 9,9 13,6 13,2 12,5 17,1 24,6 16,9 36 63 85 999 1.028 1.037 SSE 5,3 69,3 0,0
Tots els anys disponibles
2019 6,4 16,1 26,8 19,3 11,3 23,0 40,7 34,3 26 65 94 999 1.021 1.037 SSE 6,5 88,5 913,0
Temperatura (°C)
Humitat relativa (%)
Velocitat del vent i ràfega màxima (km/h)
Direcció del vent (°)
Pressió (hPa)
Precipitació (mm)
Nota sobre les dades: s'avisa a l'usuari de la provisionalitat i no oficialitat d'aquestes dades
Logo AVAMET blanc
Web allotjada a Sollutia
Llicència de Creative CommonsLa web d'AVAMET i els seus continguts estan subjectes a una llicència de
Reconeixement - No Comercial - Compartir igual
Últimes estacions:  Altea - Com. Regants (Soci), Almoines (Inforatge), Beniparrell (Inforatge), Albal (Inforatge), Almussafes - Parc Industrial (Inforatge), La Vilavella (Soci), la Serratella (soci) - - -